TAP1454 LPPT-GMMX
Flight info
| Callsign | TAP1454 |
|---|---|
| Flight time | N/A |
| Altitude | 37000 |
| Route | DUZOP1S DUZOP DCT AMSEL UR722 MABAP MABAP3A |
| Aircraft | A320/M-SDE3FGHIRWY/LB1 |
Departure
| Time | 2026-04-28 16:17 |
|---|---|
| Airport | Lisbon Humberto Delgado Airport (LPPT) |
Arrival
| Time | N/A |
|---|---|
| Airport | Marrakesh Menara Airport (GMMX) |
| Time | Latitude | Longitude | Altitude | Speed | Heading |
|---|---|---|---|---|---|
| 2026-04-28 15:56 | 38.76679 | -9.12991 | 333 ft | 0 kts | 78° |
| 2026-04-28 16:09 | 38.76664 | -9.13045 | 334 ft | 4 kts | 56° |
| 2026-04-28 16:09 | 38.76647 | -9.13068 | 334 ft | 4 kts | 22° |
| 2026-04-28 16:09 | 38.76632 | -9.13072 | 338 ft | 0 kts | 348° |
| 2026-04-28 16:12 | 38.76648 | -9.13077 | 334 ft | 8 kts | 348° |
| 2026-04-28 16:13 | 38.76765 | -9.13112 | 339 ft | 8 kts | 330° |
| 2026-04-28 16:13 | 38.76780 | -9.13161 | 336 ft | 6 kts | 266° |
| 2026-04-28 16:13 | 38.76747 | -9.13361 | 343 ft | 11 kts | 251° |
| 2026-04-28 16:14 | 38.76655 | -9.13490 | 352 ft | 13 kts | 250° |
| 2026-04-28 16:14 | 38.76613 | -9.13739 | 348 ft | 15 kts | 258° |
| 2026-04-28 16:15 | 38.76550 | -9.14023 | 350 ft | 18 kts | 232° |
| 2026-04-28 16:15 | 38.76494 | -9.14160 | 347 ft | 19 kts | 268° |
| 2026-04-28 16:15 | 38.76540 | -9.14312 | 336 ft | 19 kts | 292° |
| 2026-04-28 16:16 | 38.76774 | -9.14321 | 335 ft | 51 kts | 22° |
| 2026-04-28 16:16 | 38.77325 | -9.14025 | 363 ft | 117 kts | 23° |
| 2026-04-28 16:17 | 38.79432 | -9.12893 | 652 ft | 188 kts | 22° |
| 2026-04-28 16:17 | 38.80662 | -9.12258 | 1265 ft | 193 kts | 15° |
| 2026-04-28 16:17 | 38.81994 | -9.12215 | 1862 ft | 197 kts | 341° |
| 2026-04-28 16:17 | 38.83167 | -9.13185 | 2262 ft | 211 kts | 308° |
| 2026-04-28 16:18 | 38.83783 | -9.14971 | 2499 ft | 235 kts | 275° |
| 2026-04-28 16:18 | 38.83458 | -9.17066 | 2824 ft | 258 kts | 238° |
| 2026-04-28 16:18 | 38.82104 | -9.18637 | 3468 ft | 268 kts | 203° |
| 2026-04-28 16:18 | 38.80284 | -9.19055 | 4269 ft | 272 kts | 179° |
| 2026-04-28 16:19 | 38.78411 | -9.18623 | 5120 ft | 277 kts | 162° |
| 2026-04-28 16:19 | 38.76573 | -9.17811 | 6014 ft | 279 kts | 160° |
| 2026-04-28 16:19 | 38.74749 | -9.16944 | 6881 ft | 280 kts | 159° |
| 2026-04-28 16:19 | 38.72919 | -9.16045 | 7728 ft | 282 kts | 159° |
| 2026-04-28 16:20 | 38.71076 | -9.15130 | 8588 ft | 284 kts | 159° |
| 2026-04-28 16:20 | 38.69223 | -9.14212 | 9409 ft | 288 kts | 160° |
| 2026-04-28 16:20 | 38.67349 | -9.13293 | 10113 ft | 289 kts | 160° |
| 2026-04-28 16:20 | 38.65403 | -9.12345 | 10436 ft | 311 kts | 160° |
| 2026-04-28 16:21 | 38.63307 | -9.11327 | 10669 ft | 332 kts | 160° |
| 2026-04-28 16:21 | 38.61140 | -9.10275 | 11186 ft | 341 kts | 160° |
| 2026-04-28 16:21 | 38.58913 | -9.09192 | 11883 ft | 345 kts | 161° |
| 2026-04-28 16:21 | 38.56657 | -9.08097 | 12626 ft | 347 kts | 161° |
| 2026-04-28 16:22 | 38.54392 | -9.06999 | 13335 ft | 351 kts | 161° |
| 2026-04-28 16:22 | 38.52093 | -9.05887 | 13981 ft | 354 kts | 161° |
| 2026-04-28 16:22 | 38.49781 | -9.04768 | 14578 ft | 358 kts | 161° |
| 2026-04-28 16:22 | 38.47432 | -9.03630 | 15215 ft | 361 kts | 161° |
| 2026-04-28 16:23 | 38.45076 | -9.02487 | 15821 ft | 364 kts | 161° |
| 2026-04-28 16:23 | 38.42695 | -9.01335 | 16428 ft | 367 kts | 161° |
| 2026-04-28 16:23 | 38.40304 | -9.00183 | 17027 ft | 370 kts | 161° |
| 2026-04-28 16:23 | 38.37876 | -8.99013 | 17636 ft | 373 kts | 161° |
| 2026-04-28 16:24 | 38.35433 | -8.97849 | 18212 ft | 376 kts | 161° |
| 2026-04-28 16:24 | 38.32996 | -8.96695 | 18726 ft | 379 kts | 162° |
| 2026-04-28 16:24 | 38.30518 | -8.95527 | 19258 ft | 381 kts | 162° |
| 2026-04-28 16:24 | 38.27986 | -8.94332 | 19813 ft | 384 kts | 162° |
| 2026-04-28 16:25 | 38.25512 | -8.93160 | 20341 ft | 386 kts | 162° |
| 2026-04-28 16:25 | 38.22951 | -8.91948 | 20880 ft | 389 kts | 162° |
| 2026-04-28 16:25 | 38.20415 | -8.90748 | 21403 ft | 391 kts | 161° |
| 2026-04-28 16:25 | 38.17989 | -8.89131 | 21787 ft | 398 kts | 145° |
| 2026-04-28 16:26 | 38.16044 | -8.86602 | 21873 ft | 404 kts | 127° |
| 2026-04-28 16:26 | 38.14828 | -8.83382 | 21880 ft | 410 kts | 108° |
| 2026-04-28 16:26 | 38.14478 | -8.79777 | 21879 ft | 416 kts | 89° |
| 2026-04-28 16:26 | 38.15034 | -8.76210 | 21876 ft | 421 kts | 71° |
| 2026-04-28 16:27 | 38.16466 | -8.72959 | 21877 ft | 425 kts | 52° |
| 2026-04-28 16:27 | 38.18630 | -8.70412 | 21865 ft | 424 kts | 34° |
| 2026-04-28 16:27 | 38.23950 | -8.67536 | 21145 ft | 411 kts | 19° |
| 2026-04-28 16:28 | 38.26634 | -8.66329 | 20687 ft | 407 kts | 19° |
| 2026-04-28 16:28 | 38.29306 | -8.65123 | 20216 ft | 404 kts | 19° |
| 2026-04-28 16:28 | 38.31943 | -8.63928 | 19763 ft | 402 kts | 19° |
| 2026-04-28 16:28 | 38.34636 | -8.63064 | 19328 ft | 396 kts | 3° |
| 2026-04-28 16:29 | 38.40047 | -8.63739 | 18441 ft | 389 kts | 349° |
| 2026-04-28 16:29 | 38.45360 | -8.64775 | 17528 ft | 383 kts | 349° |
| 2026-04-28 16:30 | 38.47978 | -8.65297 | 17072 ft | 380 kts | 347° |
| 2026-04-28 16:30 | 38.50446 | -8.66288 | 16629 ft | 374 kts | 335° |
| 2026-04-28 16:30 | 38.52832 | -8.67575 | 16178 ft | 371 kts | 334° |
| 2026-04-28 16:30 | 38.55200 | -8.68879 | 15745 ft | 368 kts | 334° |
| 2026-04-28 16:31 | 38.57547 | -8.70176 | 15329 ft | 366 kts | 334° |
| 2026-04-28 16:31 | 38.59876 | -8.71474 | 14907 ft | 363 kts | 334° |
| 2026-04-28 16:31 | 38.62183 | -8.72769 | 14502 ft | 361 kts | 334° |
| 2026-04-28 16:31 | 38.64475 | -8.74060 | 14090 ft | 359 kts | 334° |
| 2026-04-28 16:32 | 38.66751 | -8.75343 | 13680 ft | 357 kts | 334° |
| 2026-04-28 16:32 | 38.71243 | -8.77886 | 13010 ft | 345 kts | 334° |
| 2026-04-28 16:32 | 38.73395 | -8.79108 | 12875 ft | 333 kts | 334° |
| 2026-04-28 16:33 | 38.75464 | -8.80274 | 12675 ft | 325 kts | 334° |
| 2026-04-28 16:33 | 38.76859 | -8.81053 | 12445 ft | 323 kts | 334° |
| 2026-04-28 16:33 | 38.79595 | -8.82598 | 11988 ft | 319 kts | 334° |
| 2026-04-28 16:33 | 38.81593 | -8.83744 | 11637 ft | 317 kts | 334° |
| 2026-04-28 16:34 | 38.83598 | -8.84890 | 11368 ft | 311 kts | 334° |
| 2026-04-28 16:34 | 38.85554 | -8.86002 | 11131 ft | 305 kts | 334° |
| 2026-04-28 16:34 | 38.87511 | -8.87114 | 10627 ft | 309 kts | 334° |
| 2026-04-28 16:34 | 38.89450 | -8.88226 | 10089 ft | 302 kts | 334° |
| 2026-04-28 16:35 | 38.91350 | -8.89331 | 9538 ft | 296 kts | 334° |
| 2026-04-28 16:35 | 38.93211 | -8.90407 | 8978 ft | 291 kts | 334° |
| 2026-04-28 16:35 | 38.95038 | -8.91459 | 8416 ft | 285 kts | 334° |
| 2026-04-28 16:35 | 38.96825 | -8.92504 | 7872 ft | 280 kts | 334° |
| 2026-04-28 16:36 | 38.98553 | -8.93526 | 7330 ft | 275 kts | 334° |
| 2026-04-28 16:36 | 39.00300 | -8.94573 | 6792 ft | 272 kts | 334° |
| 2026-04-28 16:36 | 39.01980 | -8.95589 | 6275 ft | 268 kts | 334° |